Fryeburg, Maine
Current Conditions -  °F | °C
As of 2:54 AM on Wednesday 22 Oct 2014 (Local Time) from KIZG Reporting Station
Light Rain Light Rain  
Wind Chill: 43°   Ceiling: 1000
Heat Index: 46°   Visibility: 10mi
Dew Point: 44°   Wind: 6mph
Humidity: 93%   Direction: 20°NNE
Pressure: 30.11"   Gusts: NA
Location:  44.02°N, 70.98°W
Report Text: KIZG 220654Z AUTO 02005KT 10SM -RA BKN010 OVC015 08/07 A3011 RMK AO2 CIG 006V012 SLP197 P0009 T00780067
Loading
Personal Weather Stations






























Interactive Weather Map
Tropical Storm Tracking
New forecast layout! Learn more

10-Day Weather Forecast

Advertisements
Track Severe Weather on mobile